Pagina principale
METAR-TAF:

METAR-TAF

Aeroporti :

Aeroporto di Brindisi-Casale

Brindisi, Italia

latitudine: 40-39N, longitudine: 017-57E, altezza: 15 m

Osservazione

Il bollettino è stato emesso 11 minuti fa, alle 14:20 UTC
Vento 4 kt da nord-est, variando fra nord e est
Temperature 26°C
Umidità 61%
Pressione 1010 hPa
Visibilità 10 km o più
Poco nuvoloso ad un'altezza di 1500 ft, Cumulonembo.
Nubi sparse ad un'altezza di 2500 ft
pioggia debole, temporale nelle vicinanze

METAR: LIBR 131420Z 05004KT 010V090 9999 -RA VCTS FEW015CB SCT025 26/18 Q1010

Ora: 16:31 (14:31 UTC)

Previsione

Il bollettino è stato emesso 3 ore e 31 minuti fa, alle 11:00 UTC
Previsione valida dal 13 alle 12 UTC al 14 alle 12 UTC
Vento 12 kt da nord/nord-ovest
Visibilità 10 km o più
Nubi sparse ad un'altezza di 2000 ft
Temporaneamente
dal 13 alle 18 UTC al 14 alle 09 UTC
Visibilità: 4000 m
temporale, pioggia

TAF: LIBR 131100Z 1312/1412 34012KT 9999 SCT020 TEMPO 1318/1409 4000 TSRA

Osservazioni e previsioni meteorologiche di più di 4000 aeroporti (messaggi METAR e TAF).

Le stazioni disponibili sono rappresentate dai dischi gialli e rossi sulla carta.

Puntare il mouse per vedere il nome della stazione.

Clicca sopra per visualizzare le osservazioni e previsioni meteorologiche.

Per cambiare la mappa : fare clic sui pulsanti verdi con una croce nera per ingrandire, il pulsante verde con un trattino per diminuire, o sulla freccia verde per le mappe adiacenti.


METAR-TAF: